KBOW/BOW METAR and TAF weather

Enter ICAO airport designator
Station Type Date Time Source
KBOW METAR 2018/12/13 19:45 UTC NOAA

KBOW 131945Z 12009G16KT 10SM SCT030 BKN060 24/16 A3008


Station Type Date Time Source
KBOW Decoded METAR 2018/12/13 19:45 UTC NOAA

Bartow Municipal, FL, United States (KBOW) 27-57N 081-47W
Dec 13, 2018 - 02:45 PM EST / 2018.12.13 1945 UTC
Wind: from the ESE (120 degrees) at 10 MPH (9 KT) gusting to 18 MPH (16 KT):0
Visibility: 10 mile(s):0
Sky conditions: mostly cloudy
Temperature: 75 F (24 C)
Dew Point: 60 F (16 C)
Relative Humidity: 60%
Pressure (altimeter): 30.08 in. Hg (1018 hPa)
ob: KBOW 131945Z 12009G16KT 10SM SCT030 BKN060 24/16 A3008
cycle: 20

Station Type Date Time Source
KBOW TAF UTC NOAA

Error!


Example: see airport list